createdAt,value
2023-10-08T00:04:30.904Z,0.50
2023-10-08T00:09:38.049Z,0.60
2023-10-08T00:14:45.541Z,0.52
2023-10-08T00:19:54.022Z,0.50
2023-10-08T00:24:59.496Z,0.63
2023-10-08T00:30:12.325Z,0.52
2023-10-08T00:35:21.834Z,0.55
2023-10-08T00:40:25.642Z,0.60
2023-10-08T00:45:31.643Z,0.40
2023-10-08T00:50:44.303Z,0.50
2023-10-08T00:55:54.764Z,0.50
2023-10-08T01:01:01.129Z,0.47
2023-10-08T01:06:11.053Z,0.40
2023-10-08T01:11:23.129Z,0.40
2023-10-08T01:16:28.348Z,0.50
2023-10-08T01:21:36.237Z,0.50
2023-10-08T01:26:41.922Z,0.40
2023-10-08T01:31:45.440Z,0.50
2023-10-08T01:36:49.963Z,0.50
2023-10-08T01:41:54.843Z,0.60
2023-10-08T01:52:08.865Z,0.40
2023-10-08T01:57:13.831Z,0.40
2023-10-08T02:07:22.389Z,0.50
2023-10-08T02:12:27.213Z,0.60
2023-10-08T02:17:30.998Z,0.50
2023-10-08T02:22:35.208Z,0.40
2023-10-08T02:27:40.043Z,0.47
2023-10-08T02:37:47.696Z,0.52
2023-10-08T02:42:52.648Z,0.50
2023-10-08T02:47:56.703Z,0.40
2023-10-08T02:53:04.752Z,0.60
2023-10-08T02:58:12.639Z,0.55
2023-10-08T03:03:17.949Z,0.60
2023-10-08T03:08:22.898Z,0.50
2023-10-08T03:13:28.231Z,0.60
2023-10-08T03:18:37.448Z,0.50
2023-10-08T03:23:47.251Z,0.70
2023-10-08T03:28:58.841Z,0.57
2023-10-08T03:34:02.299Z,0.70
2023-10-08T03:39:14.567Z,0.70
2023-10-08T03:44:21.996Z,0.52
2023-10-08T03:49:32.640Z,0.70
2023-10-08T03:54:36.806Z,0.70
2023-10-08T03:59:42.904Z,0.80
2023-10-08T04:04:58.176Z,0.55
2023-10-08T04:10:28.416Z,0.52
2023-10-08T04:15:34.543Z,0.60
2023-10-08T04:20:40.252Z,0.40
2023-10-08T04:25:44.822Z,0.80
2023-10-08T04:30:52.427Z,0.80
2023-10-08T04:35:57.396Z,0.68
2023-10-08T04:41:03.747Z,0.60
2023-10-08T04:46:20.709Z,0.60
2023-10-08T04:51:24.478Z,0.60
2023-10-08T04:56:29.800Z,0.65
2023-10-08T05:01:48.662Z,0.60
2023-10-08T05:07:18.623Z,0.60
2023-10-08T05:12:36.071Z,0.60
2023-10-08T05:17:57.784Z,0.60
2023-10-08T05:23:21.568Z,0.70
2023-10-08T05:28:26.574Z,0.73
2023-10-08T05:33:52.379Z,0.60
2023-10-08T05:39:02.360Z,0.60
2023-10-08T05:44:39.885Z,0.80
2023-10-08T05:49:55.937Z,0.60
2023-10-08T05:55:26.336Z,0.60
2023-10-08T06:00:46.632Z,0.50
2023-10-08T06:06:08.682Z,0.70
2023-10-08T06:11:28.791Z,0.50
2023-10-08T06:16:45.066Z,0.75
2023-10-08T06:21:50.027Z,0.55
2023-10-08T06:31:57.894Z,0.73
2023-10-08T06:37:03.031Z,0.70
2023-10-08T06:42:08.797Z,0.50
2023-10-08T06:47:12.341Z,0.55
2023-10-08T06:52:18.373Z,0.70
2023-10-08T06:57:22.367Z,0.60
2023-10-08T07:02:28.130Z,0.60
2023-10-08T07:07:33.450Z,0.70
2023-10-08T07:12:36.983Z,0.70
2023-10-08T07:17:41.907Z,0.70
2023-10-08T07:22:46.886Z,0.75
2023-10-08T07:27:50.567Z,0.75
2023-10-08T07:32:55.562Z,0.60
2023-10-08T07:38:00.507Z,0.80
2023-10-08T07:48:15.252Z,0.60
2023-10-08T07:53:20.275Z,0.90
2023-10-08T07:58:23.805Z,0.70
2023-10-08T08:03:27.552Z,0.80
2023-10-08T08:08:32.469Z,0.60
2023-10-08T08:18:41.334Z,1.17
2023-10-08T08:23:49.529Z,1.02
2023-10-08T08:28:53.233Z,0.75
2023-10-08T08:34:00.958Z,1.10
2023-10-08T08:39:06.385Z,1.00
2023-10-08T08:44:10.905Z,0.85
2023-10-08T08:49:15.616Z,0.70
2023-10-08T08:54:21.703Z,0.80
2023-10-08T08:59:26.131Z,0.85
2023-10-08T09:04:34.129Z,0.88
2023-10-08T09:09:40.714Z,0.98
2023-10-08T09:14:46.132Z,0.70
2023-10-08T09:19:51.562Z,0.75
2023-10-08T09:24:56.649Z,0.70
2023-10-08T09:30:00.810Z,0.80
2023-10-08T09:35:07.098Z,0.95
2023-10-08T09:40:14.202Z,0.77
2023-10-08T09:45:18.048Z,0.80
2023-10-08T09:50:29.924Z,0.68
2023-10-08T09:55:35.176Z,0.70
2023-10-08T10:00:39.691Z,0.70
2023-10-08T10:05:45.960Z,0.88
2023-10-08T10:11:01.121Z,0.98
2023-10-08T10:16:08.313Z,0.90
2023-10-08T10:21:28.805Z,0.77
2023-10-08T10:26:36.007Z,0.90
2023-10-08T10:31:41.791Z,0.70
2023-10-08T10:36:49.902Z,0.80
2023-10-08T10:41:58.697Z,0.90
2023-10-08T10:47:20.304Z,0.80
2023-10-08T10:52:45.982Z,0.85
2023-10-08T10:58:03.864Z,0.93
2023-10-08T11:03:17.729Z,0.60
2023-10-08T11:08:24.470Z,0.70
2023-10-08T11:13:38.550Z,0.85
2023-10-08T11:18:46.202Z,0.80
2023-10-08T11:23:56.855Z,0.60
2023-10-08T11:29:04.288Z,0.70
2023-10-08T11:34:11.075Z,0.85
2023-10-08T11:39:22.999Z,0.60
2023-10-08T11:44:31.920Z,0.60
2023-10-08T11:49:37.870Z,0.70
2023-10-08T11:54:43.454Z,0.75
2023-10-08T11:59:48.501Z,0.73
2023-10-08T12:04:52.889Z,0.80
2023-10-08T12:09:56.642Z,0.80
2023-10-08T12:15:04.752Z,0.80
2023-10-08T12:20:24.519Z,0.90
2023-10-08T12:25:28.387Z,0.70
2023-10-08T12:30:33.684Z,0.57
2023-10-08T12:35:38.437Z,0.70
2023-10-08T12:40:48.895Z,0.77
2023-10-08T12:45:57.909Z,0.85
2023-10-08T12:51:02.001Z,0.80
2023-10-08T12:56:07.876Z,0.70
2023-10-08T13:01:14.902Z,0.80
2023-10-08T13:06:24.228Z,0.70
2023-10-08T13:11:30.911Z,0.80
2023-10-08T13:16:38.677Z,0.90
2023-10-08T13:21:42.401Z,0.82
2023-10-08T13:26:49.295Z,0.70
2023-10-08T13:31:55.559Z,0.60
2023-10-08T13:36:59.112Z,0.70
2023-10-08T13:42:03.020Z,0.70
2023-10-08T13:47:08.036Z,0.70
2023-10-08T13:52:12.067Z,0.60
2023-10-08T13:57:16.336Z,0.63
2023-10-08T14:02:22.880Z,0.70
2023-10-08T14:07:28.701Z,0.70
2023-10-08T14:12:35.916Z,0.70
2023-10-08T14:17:45.095Z,0.70
2023-10-08T14:22:53.382Z,0.70
2023-10-08T14:28:05.820Z,0.60
2023-10-08T14:33:14.682Z,0.60
2023-10-08T14:38:35.914Z,0.70
2023-10-08T14:43:39.659Z,0.60
2023-10-08T14:48:44.908Z,0.70
2023-10-08T14:53:49.125Z,0.60
2023-10-08T14:58:52.754Z,0.55
2023-10-08T15:03:58.962Z,0.70
2023-10-08T15:09:02.711Z,0.60
2023-10-08T15:14:10.944Z,0.63
2023-10-08T15:19:17.476Z,0.70
2023-10-08T15:24:22.710Z,0.50
2023-10-08T15:29:27.549Z,0.75
2023-10-08T15:39:42.092Z,0.70
2023-10-08T15:44:46.305Z,0.50
2023-10-08T15:49:51.292Z,0.57
2023-10-08T15:54:54.873Z,0.60
2023-10-08T15:59:58.429Z,0.40
2023-10-08T16:05:04.154Z,0.50
2023-10-08T16:10:10.234Z,0.50
2023-10-08T16:15:14.300Z,0.63
2023-10-08T16:20:19.472Z,0.68
2023-10-08T16:25:23.038Z,0.60
2023-10-08T16:30:29.158Z,0.50
2023-10-08T16:35:34.433Z,0.60
2023-10-08T16:40:37.999Z,0.50
2023-10-08T16:45:41.700Z,0.60
2023-10-08T16:50:46.848Z,0.50
2023-10-08T16:55:51.254Z,1.08
2023-10-08T17:00:54.912Z,0.75
2023-10-08T17:06:01.256Z,0.70
2023-10-08T17:11:05.443Z,0.68
2023-10-08T17:16:09.452Z,0.60
2023-10-08T17:21:16.510Z,0.50
2023-10-08T17:26:20.113Z,0.52
2023-10-08T17:31:25.118Z,0.68
2023-10-08T17:36:30.863Z,0.55
2023-10-08T17:41:34.420Z,0.40
2023-10-08T17:46:39.029Z,0.40
2023-10-08T17:51:44.161Z,0.50
2023-10-08T17:56:47.944Z,0.70
2023-10-08T18:01:51.579Z,0.40
2023-10-08T18:06:56.605Z,0.55
2023-10-08T18:12:01.778Z,0.50
2023-10-08T18:17:06.538Z,0.43
2023-10-08T18:27:15.462Z,0.45
2023-10-08T18:32:19.035Z,0.40
2023-10-08T18:37:24.166Z,0.40
2023-10-08T18:42:28.946Z,0.60
2023-10-08T18:52:39.680Z,0.47
2023-10-08T18:57:43.691Z,0.50
2023-10-08T19:02:47.826Z,0.50
2023-10-08T19:07:54.985Z,0.50
2023-10-08T19:12:59.131Z,0.50
2023-10-08T19:18:06.081Z,0.50
2023-10-08T19:23:12.105Z,0.40
2023-10-08T19:28:16.505Z,0.40
2023-10-08T19:33:20.890Z,0.50
2023-10-08T19:38:26.374Z,0.50
2023-10-08T19:43:30.302Z,0.40
2023-10-08T19:48:34.501Z,0.40
2023-10-08T19:53:40.021Z,0.40
2023-10-08T19:58:43.518Z,0.60
2023-10-08T20:03:48.062Z,0.40
2023-10-08T20:08:53.494Z,0.68
2023-10-08T20:13:57.084Z,0.50
2023-10-08T20:19:00.744Z,0.40
2023-10-08T20:24:05.874Z,0.50
2023-10-08T20:29:09.801Z,0.40
2023-10-08T20:34:13.461Z,0.47
2023-10-08T20:39:21.160Z,0.50
2023-10-08T20:44:24.853Z,0.40
2023-10-08T20:49:28.894Z,0.45
2023-10-08T20:54:34.366Z,0.50
2023-10-08T20:59:37.892Z,0.70
2023-10-08T21:04:41.452Z,0.50
2023-10-08T21:09:46.408Z,0.60
2023-10-08T21:14:49.995Z,0.40
2023-10-08T21:19:53.515Z,0.50
2023-10-08T21:24:58.448Z,0.50
2023-10-08T21:30:01.987Z,0.60
2023-10-08T21:35:08.867Z,0.70
2023-10-08T21:40:14.960Z,0.65
2023-10-08T21:45:20.381Z,0.60
2023-10-08T21:50:25.737Z,0.50
2023-10-08T21:55:31.201Z,0.50
2023-10-08T22:00:47.504Z,0.47
2023-10-08T22:05:53.109Z,0.47
2023-10-08T22:10:58.386Z,0.50
2023-10-08T22:16:15.180Z,0.50
2023-10-08T22:21:19.955Z,0.50
2023-10-08T22:31:29.599Z,0.60
2023-10-08T22:36:42.976Z,0.40
2023-10-08T22:41:55.972Z,0.50
2023-10-08T22:47:11.426Z,0.50
2023-10-08T22:52:16.907Z,0.45
2023-10-08T22:57:24.746Z,0.50
2023-10-08T23:02:29.085Z,0.68
2023-10-08T23:07:32.570Z,0.50
2023-10-08T23:12:37.418Z,0.50
2023-10-08T23:22:45.901Z,0.50
2023-10-08T23:27:50.782Z,0.50
2023-10-08T23:38:07.439Z,0.50
2023-10-08T23:43:17.269Z,0.43
2023-10-08T23:48:21.107Z,0.50
2023-10-08T23:53:30.767Z,0.60
2023-10-08T23:58:38.780Z,0.50
